createdAt,value
2019-03-25T20:34:25.473Z,49.066162
2019-03-25T20:34:39.926Z,50.964355
2019-03-25T20:34:52.409Z,50.067139
2019-03-25T20:35:05.728Z,49.066162
2019-03-25T20:35:19.289Z,48.565674
2019-03-25T20:35:32.374Z,48.461914
2019-03-25T20:35:44.986Z,48.760986
2019-03-25T20:35:57.644Z,49.365234
2019-03-25T20:36:10.132Z,49.56665
2019-03-25T20:36:22.911Z,49.261475
2019-03-25T20:36:35.371Z,48.760986
2019-03-25T20:36:49.134Z,48.66333
2019-03-25T20:37:01.666Z,48.461914
2019-03-25T20:37:14.212Z,48.461914
2019-03-25T20:37:26.986Z,48.260498
2019-03-25T20:37:39.792Z,48.260498
2019-03-25T20:37:52.540Z,48.260498
2019-03-25T20:38:05.463Z,48.260498
2019-03-25T20:38:18.297Z,48.162842
2019-03-25T20:38:30.958Z,48.260498
2019-03-25T20:38:49.213Z,48.260498
2019-03-25T20:38:59.756Z,48.260498
2019-03-25T20:39:12.913Z,48.260498
2019-03-25T20:39:26.988Z,48.260498
2019-03-25T20:39:39.700Z,48.260498
2019-03-25T20:39:52.347Z,48.260498
2019-03-25T20:40:05.044Z,48.260498
2019-03-25T20:40:17.724Z,51.068115
2019-03-25T20:40:30.137Z,51.464844
2019-03-25T20:40:42.708Z,50.463867
2019-03-25T20:40:55.380Z,49.261475
2019-03-25T20:41:08.832Z,49.462891
2019-03-25T20:41:21.539Z,50.067139
2019-03-25T20:41:34.078Z,50.366211
2019-03-25T20:41:46.565Z,50.262451
2019-03-25T20:42:00.095Z,50.164795
2019-03-25T20:42:12.609Z,49.963379
2019-03-25T20:42:25.107Z,49.963379
2019-03-25T20:42:37.546Z,49.365234
2019-03-25T20:42:51.969Z,49.365234
2019-03-25T20:43:04.475Z,48.66333
2019-03-25T20:43:16.945Z,48.66333
2019-03-25T20:43:30.388Z,48.565674
2019-03-25T20:43:42.777Z,48.565674
2019-03-25T20:43:55.178Z,48.864746
2019-03-25T20:44:08.275Z,48.760986
2019-03-25T20:44:21.376Z,48.565674
2019-03-25T20:44:33.448Z,48.461914
2019-03-25T20:44:45.655Z,48.962402
2019-03-25T20:44:57.829Z,49.066162
2019-03-25T20:45:11.066Z,48.461914
2019-03-25T20:45:25.399Z,48.364258
2019-03-25T20:45:38.629Z,48.162842
2019-03-25T20:45:51.097Z,49.365234
2019-03-25T20:46:03.375Z,48.864746
2019-03-25T20:46:15.865Z,48.565674
2019-03-25T20:46:28.624Z,48.565674
2019-03-25T20:46:41.095Z,48.760986
2019-03-25T20:46:53.320Z,48.461914
2019-03-25T20:47:05.547Z,48.864746
2019-03-25T20:47:17.847Z,48.962402
2019-03-25T20:47:30.109Z,48.66333
2019-03-25T20:47:42.230Z,48.864746
2019-03-25T20:47:54.424Z,49.261475
2019-03-25T20:48:06.643Z,49.066162
2019-03-25T20:48:18.877Z,49.664307
2019-03-25T20:48:31.055Z,49.865723
2019-03-25T20:48:44.230Z,50.164795
2019-03-25T20:48:56.351Z,49.462891
2019-03-25T20:49:08.535Z,49.066162
2019-03-25T20:49:20.725Z,48.962402
2019-03-25T20:49:32.810Z,49.066162
2019-03-25T20:49:44.959Z,48.864746
2019-03-25T20:49:57.075Z,48.760986
2019-03-25T20:50:09.247Z,49.664307
2019-03-25T20:50:21.463Z,50.463867
2019-03-25T20:50:33.711Z,49.365234
2019-03-25T20:50:46.012Z,49.365234
2019-03-25T20:50:58.187Z,50.366211
2019-03-25T20:51:10.434Z,50.866699
2019-03-25T20:51:22.689Z,50.262451
2019-03-25T20:51:34.896Z,49.865723
2019-03-25T20:51:47.013Z,49.365234
2019-03-25T20:51:59.094Z,49.462891
2019-03-25T20:52:11.198Z,49.066162
2019-03-25T20:52:24.786Z,48.760986
2019-03-25T20:52:37.008Z,48.66333
2019-03-25T20:52:49.525Z,48.962402
2019-03-25T20:53:02.895Z,48.760986
2019-03-25T20:53:16.193Z,50.665283
2019-03-25T20:53:28.523Z,50.463867
2019-03-25T20:53:40.900Z,51.165771
2019-03-25T20:53:53.208Z,50.866699
2019-03-25T20:54:05.398Z,50.567627
2019-03-25T20:54:17.571Z,49.261475
2019-03-25T20:54:29.658Z,49.163818
2019-03-25T20:54:41.855Z,49.066162
2019-03-25T20:54:54.887Z,49.261475
2019-03-25T20:55:07.010Z,48.760986
2019-03-25T20:55:19.102Z,48.565674
2019-03-25T20:55:31.175Z,48.760986
2019-03-25T20:55:44.294Z,49.066162
2019-03-25T20:55:56.491Z,48.565674
2019-03-25T20:56:09.484Z,48.461914
2019-03-25T20:56:21.545Z,48.364258
2019-03-25T20:56:35.749Z,49.163818
2019-03-25T20:56:48.136Z,48.962402
2019-03-25T20:57:00.487Z,48.864746
2019-03-25T20:57:12.865Z,48.760986
2019-03-25T20:57:25.108Z,48.565674
2019-03-25T20:57:40.431Z,48.565674
2019-03-25T20:57:51.657Z,48.962402
2019-03-25T20:58:04.888Z,48.760986
2019-03-25T20:58:17.083Z,48.461914
2019-03-25T20:58:29.184Z,49.261475
2019-03-25T20:58:41.497Z,49.365234
2019-03-25T20:58:53.870Z,50.866699
2019-03-25T20:59:06.075Z,49.664307
2019-03-25T20:59:18.619Z,49.163818
2019-03-25T20:59:31.069Z,49.163818
2019-03-25T20:59:43.553Z,48.864746
2019-03-25T20:59:56.190Z,48.66333
2019-03-25T21:00:08.632Z,48.461914
2019-03-25T21:00:21.003Z,48.461914
2019-03-25T21:00:34.370Z,49.066162
2019-03-25T21:00:46.819Z,49.56665
2019-03-25T21:01:00.159Z,49.066162
2019-03-25T21:01:12.418Z,48.66333
2019-03-25T21:01:24.949Z,48.565674
2019-03-25T21:01:37.397Z,49.066162
2019-03-25T21:01:49.795Z,48.864746
2019-03-25T21:02:02.215Z,48.760986
2019-03-25T21:02:14.827Z,48.66333
2019-03-25T21:02:27.356Z,48.760986
2019-03-25T21:02:46.830Z,48.962402
2019-03-25T21:02:59.204Z,49.066162
2019-03-25T21:03:11.604Z,48.864746
2019-03-25T21:03:24.290Z,48.565674
2019-03-25T21:03:36.888Z,48.461914
2019-03-25T21:03:49.365Z,48.66333
2019-03-25T21:04:02.969Z,48.461914
2019-03-25T21:04:15.605Z,48.962402
2019-03-25T21:04:28.261Z,48.864746
2019-03-25T21:04:40.620Z,48.565674
2019-03-25T21:04:53.187Z,48.760986
2019-03-25T21:05:06.182Z,48.66333
2019-03-25T21:05:18.943Z,48.461914
2019-03-25T21:05:32.544Z,48.66333
2019-03-25T21:05:45.241Z,48.66333
2019-03-25T21:05:57.907Z,48.461914
2019-03-25T21:06:10.959Z,48.461914
2019-03-25T21:06:23.715Z,48.364258
2019-03-25T21:06:36.478Z,48.461914
2019-03-25T21:06:49.115Z,48.461914
2019-03-25T21:07:03.916Z,48.461914
2019-03-25T21:07:17.349Z,49.963379
2019-03-25T21:07:30.039Z,49.261475
2019-03-25T21:07:42.569Z,48.66333
2019-03-25T21:07:54.886Z,49.261475
2019-03-25T21:08:07.265Z,48.962402
2019-03-25T21:08:20.769Z,48.66333
2019-03-25T21:08:33.190Z,48.66333
2019-03-25T21:08:45.552Z,48.760986
2019-03-25T21:08:57.792Z,48.66333
2019-03-25T21:09:10.100Z,48.66333
2019-03-25T21:09:23.877Z,48.565674
2019-03-25T21:09:36.379Z,48.565674
2019-03-25T21:09:49.890Z,48.565674
2019-03-25T21:10:02.530Z,48.66333
2019-03-25T21:10:15.418Z,49.462891
2019-03-25T21:10:28.093Z,48.962402
2019-03-25T21:10:40.611Z,49.365234
2019-03-25T21:10:53.992Z,50.567627
2019-03-25T21:11:06.252Z,49.56665
2019-03-25T21:11:18.633Z,48.962402
2019-03-25T21:11:31.103Z,50.366211
2019-03-25T21:11:43.596Z,49.761963
2019-03-25T21:11:55.936Z,48.962402
2019-03-25T21:12:08.297Z,48.760986
2019-03-25T21:12:20.800Z,48.565674
2019-03-25T21:12:33.170Z,48.565674
2019-03-25T21:12:47.446Z,48.565674
2019-03-25T21:12:59.830Z,48.461914
2019-03-25T21:13:12.095Z,49.163818
2019-03-25T21:13:24.555Z,49.163818
2019-03-25T21:13:37.248Z,48.66333
2019-03-25T21:13:50.665Z,49.963379
2019-03-25T21:14:03.217Z,49.865723
2019-03-25T21:14:16.583Z,49.066162
2019-03-25T21:14:29.224Z,48.760986
2019-03-25T21:14:41.748Z,48.565674
2019-03-25T21:14:54.182Z,48.461914
2019-03-25T21:15:07.551Z,48.364258
2019-03-25T21:15:19.985Z,48.364258
2019-03-25T21:15:32.509Z,48.260498
2019-03-25T21:15:46.063Z,48.364258
2019-03-25T21:15:58.614Z,48.364258
2019-03-25T21:16:11.222Z,48.962402
2019-03-25T21:16:23.798Z,48.565674
2019-03-25T21:16:36.324Z,48.461914
2019-03-25T21:16:48.920Z,48.364258
2019-03-25T21:17:01.343Z,48.66333
2019-03-25T21:17:13.829Z,48.565674
2019-03-25T21:17:26.371Z,48.461914
2019-03-25T21:17:38.792Z,48.364258
2019-03-25T21:17:52.148Z,48.260498
2019-03-25T21:18:05.566Z,48.260498
2019-03-25T21:18:18.199Z,48.260498
2019-03-25T21:18:31.901Z,48.364258
2019-03-25T21:18:44.285Z,48.260498
2019-03-25T21:18:57.623Z,49.066162
2019-03-25T21:19:09.774Z,50.463867
2019-03-25T21:19:22.173Z,49.664307
2019-03-25T21:19:34.455Z,49.365234
2019-03-25T21:19:46.684Z,48.864746
2019-03-25T21:19:58.804Z,49.163818
2019-03-25T21:20:10.958Z,49.261475
2019-03-25T21:20:24.135Z,49.066162
2019-03-25T21:20:36.397Z,49.163818
2019-03-25T21:20:48.948Z,48.66333
2019-03-25T21:21:01.315Z,48.461914
2019-03-25T21:21:13.546Z,48.565674
2019-03-25T21:21:26.022Z,49.261475
2019-03-25T21:21:38.604Z,49.066162
2019-03-25T21:21:51.017Z,49.066162
2019-03-25T21:22:04.953Z,50.463867
2019-03-25T21:22:18.399Z,50.567627
2019-03-25T21:22:30.887Z,49.365234
2019-03-25T21:22:43.391Z,49.066162
2019-03-25T21:22:56.004Z,49.664307
2019-03-25T21:23:08.319Z,49.163818
2019-03-25T21:23:20.782Z,49.865723
2019-03-25T21:23:33.243Z,49.163818
2019-03-25T21:23:47.147Z,49.462891
2019-03-25T21:24:00.106Z,49.462891
2019-03-25T21:24:13.120Z,49.963379
2019-03-25T21:24:25.999Z,49.963379
2019-03-25T21:24:38.755Z,49.664307
2019-03-25T21:24:51.104Z,50.164795
2019-03-25T21:25:03.437Z,50.665283
2019-03-25T21:25:15.775Z,50.762939
2019-03-25T21:25:29.570Z,50.067139
2019-03-25T21:25:42.413Z,48.962402
2019-03-25T21:25:55.246Z,49.761963
2019-03-25T21:26:07.569Z,50.762939
2019-03-25T21:26:20.886Z,49.865723
2019-03-25T21:26:33.249Z,48.962402
2019-03-25T21:26:45.704Z,48.760986
2019-03-25T21:26:58.383Z,50.067139
2019-03-25T21:27:10.953Z,49.664307
2019-03-25T21:27:23.786Z,49.664307
2019-03-25T21:27:36.644Z,50.067139
2019-03-25T21:27:49.480Z,49.761963
2019-03-25T21:28:02.221Z,49.462891
2019-03-25T21:28:14.770Z,48.962402
2019-03-25T21:28:28.465Z,48.565674
2019-03-25T21:28:41.776Z,48.565674
2019-03-25T21:28:53.997Z,48.565674
2019-03-25T21:29:06.265Z,48.66333
2019-03-25T21:30:12.328Z,35.162354
2019-03-25T21:30:24.364Z,34.375
2019-03-25T21:30:47.616Z,34.80835
2019-03-25T21:30:57.443Z,35.125732
2019-03-25T21:31:09.623Z,35.461426
2019-03-25T21:31:21.640Z,36.181641
2019-03-25T21:31:34.672Z,36.920166
2019-03-25T21:31:47.711Z,37.561035
2019-03-25T21:32:00.791Z,38.40332
2019-03-25T21:32:12.986Z,39.129639
2019-03-25T21:32:25.105Z,39.868164
2019-03-25T21:32:37.210Z,40.393066
2019-03-25T21:32:58.390Z,41.442871
2019-03-25T21:33:09.233Z,42.492676
2019-03-25T21:33:21.233Z,43.139648
2019-03-25T21:33:33.343Z,43.768311
2019-03-25T21:33:45.364Z,44.396973
2019-03-25T21:33:57.501Z,45.251465
2019-03-25T21:34:09.639Z,45.88623
2019-03-25T21:34:21.756Z,46.716309
2019-03-25T21:34:33.859Z,47.44873
2019-03-25T21:34:45.963Z,48.187256
2019-03-25T21:34:58.214Z,49.041748
2019-03-25T21:35:10.296Z,49.676514
2019-03-25T21:35:23.308Z,50.616455
2019-03-25T21:35:35.368Z,51.45874
2019-03-25T21:35:47.433Z,51.989746
2019-03-25T21:35:59.516Z,52.502441
2019-03-25T21:36:11.582Z,53.033447
2019-03-25T21:36:23.595Z,53.363037
2019-03-25T21:36:35.660Z,53.900146
2019-03-25T21:36:48.735Z,54.742432
2019-03-25T21:37:00.834Z,55.383301
2019-03-25T21:37:13.888Z,56.121826
2019-03-25T21:37:25.994Z,56.738281
2019-03-25T21:37:38.070Z,57.37915
2019-03-25T21:37:50.132Z,57.8125
2019-03-25T21:38:02.221Z,58.251953
2019-03-25T21:38:14.314Z,58.758545
2019-03-25T21:38:26.382Z,59.197998
2019-03-25T21:38:38.491Z,59.606934
2019-03-25T21:38:52.518Z,60.046387
2019-03-25T21:39:04.593Z,60.894775
2019-03-25T21:39:17.613Z,61.407471
2019-03-25T21:39:30.661Z,61.846924
2019-03-25T21:39:42.785Z,62.04834
2019-03-25T21:39:55.939Z,62.487793
2019-03-25T21:40:08.029Z,62.799072
2019-03-25T21:40:20.103Z,63.342285
2019-03-25T21:40:32.225Z,63.85498
2019-03-25T21:40:46.269Z,64.367676
2019-03-25T21:40:59.876Z,64.703369
2019-03-25T21:41:12.207Z,65.014648
2019-03-25T21:41:24.257Z,65.216064
2019-03-25T21:41:36.329Z,65.661621
2019-03-25T21:41:49.362Z,66.278076
2019-03-25T21:42:01.417Z,66.790771
2019-03-25T21:42:14.490Z,67.126465
2019-03-25T21:42:29.223Z,67.333984
2019-03-25T21:42:40.623Z,67.645264
2019-03-25T21:42:52.684Z,68.292236
2019-03-25T21:43:05.785Z,68.908691
2019-03-25T21:43:18.841Z,69.219971
2019-03-25T21:43:30.921Z,69.421387
2019-03-25T21:43:43.121Z,69.659424
2019-03-25T21:43:55.205Z,69.970703
2019-03-25T21:44:07.280Z,70.074463
2019-03-25T21:44:19.617Z,70.074463
2019-03-25T21:44:31.697Z,70.20874
2019-03-25T21:44:43.758Z,70.3125
2019-03-25T21:44:55.941Z,70.52002
2019-03-25T21:45:07.965Z,70.825195
2019-03-25T21:45:20.032Z,70.928955
2019-03-25T21:45:33.026Z,71.136475
2019-03-25T21:45:45.073Z,71.270752
2019-03-25T21:45:57.135Z,71.478271
2019-03-25T21:46:09.247Z,71.783447
2019-03-25T21:46:22.272Z,71.990967
2019-03-25T21:46:35.314Z,72.198486
2019-03-25T21:46:47.392Z,72.406006
2019-03-25T21:46:59.469Z,72.711182
2019-03-25T21:47:11.589Z,73.022461
2019-03-25T21:47:24.616Z,73.156738
2019-03-25T21:47:36.691Z,73.260498
2019-03-25T21:47:48.768Z,73.364258
2019-03-25T21:48:00.834Z,73.364258
2019-03-25T21:48:13.090Z,73.260498
2019-03-25T21:48:25.968Z,72.955322
2019-03-25T21:48:40.034Z,72.955322
2019-03-25T21:48:52.093Z,73.156738
2019-03-25T21:49:05.285Z,73.504639
2019-03-25T21:49:18.185Z,73.809814
2019-03-25T21:49:31.310Z,74.017334
2019-03-25T21:49:43.443Z,74.328613
2019-03-25T21:49:56.397Z,74.530029
2019-03-25T21:50:09.556Z,74.737549
2019-03-25T21:50:21.676Z,74.841309
2019-03-25T21:50:34.703Z,74.945068
2019-03-25T21:50:46.920Z,74.841309
2019-03-25T21:50:58.968Z,74.841309
2019-03-25T21:51:11.051Z,74.981689
2019-03-25T21:51:23.944Z,75.390625
2019-03-25T21:51:36.053Z,75.701904
2019-03-25T21:51:49.080Z,75.805664
2019-03-25T21:52:01.216Z,75.909424
2019-03-25T21:52:13.205Z,76.013184
2019-03-25T21:52:25.362Z,76.2146
2019-03-25T21:52:37.366Z,76.318359
2019-03-25T21:52:50.528Z,76.629639
2019-03-25T21:53:02.668Z,76.837158
2019-03-25T21:53:14.843Z,76.733398
2019-03-25T21:53:26.852Z,76.525879
2019-03-25T21:53:38.906Z,76.629639
2019-03-25T21:53:53.219Z,76.837158
2019-03-25T21:54:05.041Z,76.940918
2019-03-25T21:54:17.074Z,77.075195
2019-03-25T21:54:29.178Z,77.075195
2019-03-25T21:54:42.186Z,77.178955
2019-03-25T21:54:54.297Z,77.282715
2019-03-25T21:55:06.347Z,77.282715
2019-03-25T21:55:18.423Z,77.282715
2019-03-25T21:55:30.511Z,77.178955
2019-03-25T21:55:42.537Z,77.386475
2019-03-25T21:55:54.615Z,77.593994
2019-03-25T21:56:07.628Z,77.593994
2019-03-25T21:56:20.801Z,77.801514
2019-03-25T21:56:33.871Z,77.801514
2019-03-25T21:56:46.914Z,77.801514
2019-03-25T21:56:59.988Z,77.801514
2019-03-25T21:57:13.072Z,77.905273
2019-03-25T21:57:25.094Z,77.905273
2019-03-25T21:57:37.141Z,77.905273
2019-03-25T21:57:49.309Z,78.210449
2019-03-25T21:58:01.274Z,78.314209
2019-03-25T21:58:14.383Z,78.417969
2019-03-25T21:58:26.512Z,78.417969
2019-03-25T21:58:38.471Z,78.417969
2019-03-25T21:58:50.634Z,78.521729
2019-03-25T21:59:05.722Z,78.521729
2019-03-25T21:59:18.753Z,78.417969
2019-03-25T21:59:31.806Z,78.417969
2019-03-25T21:59:43.861Z,78.314209
2019-03-25T21:59:55.922Z,78.314209
2019-03-25T22:00:08.122Z,78.210449
2019-03-25T22:00:21.162Z,78.417969
2019-03-25T22:00:33.185Z,78.625488
2019-03-25T22:00:45.990Z,78.729248
2019-03-25T22:00:58.066Z,78.729248
2019-03-25T22:01:10.136Z,78.729248
2019-03-25T22:01:22.274Z,78.833008
2019-03-25T22:01:34.203Z,78.936768
2019-03-25T22:01:46.311Z,79.040527
2019-03-25T22:01:58.372Z,78.936768
2019-03-25T22:02:10.471Z,78.833008
2019-03-25T22:02:22.545Z,78.833008
2019-03-25T22:02:34.605Z,79.077148
2019-03-25T22:02:46.655Z,79.382324
2019-03-25T22:03:11.264Z,79.382324
2019-03-25T22:03:18.745Z,78.973389
2019-03-25T22:03:31.798Z,78.869629
2019-03-25T22:03:43.873Z,78.765869
2019-03-25T22:03:55.935Z,78.869629
2019-03-25T22:04:08.973Z,78.869629
2019-03-25T22:04:21.018Z,78.973389
2019-03-25T22:04:34.060Z,78.973389
2019-03-25T22:04:46.110Z,78.973389
2019-03-25T22:04:59.160Z,79.077148
2019-03-25T22:05:11.222Z,79.180908
2019-03-25T22:05:23.303Z,79.284668
2019-03-25T22:05:35.342Z,79.284668
2019-03-25T22:05:47.396Z,79.180908
2019-03-25T22:05:59.449Z,79.284668
2019-03-25T22:06:11.534Z,79.589844
2019-03-25T22:06:23.637Z,79.797363
2019-03-25T22:06:35.683Z,79.797363
2019-03-25T22:06:47.737Z,79.797363
2019-03-25T22:06:59.768Z,80.004883
2019-03-25T22:07:11.900Z,80.108643
2019-03-25T22:07:23.943Z,80.108643
2019-03-25T22:07:36.027Z,80.108643
2019-03-25T22:07:48.100Z,80.212402
2019-03-25T22:08:00.142Z,80.108643
2019-03-25T22:08:12.196Z,80.108643
2019-03-25T22:08:24.241Z,80.212402
2019-03-25T22:08:36.314Z,80.108643
2019-03-25T22:08:48.385Z,80.004883
2019-03-25T22:09:01.427Z,80.004883
2019-03-25T22:09:13.537Z,80.108643
2019-03-25T22:09:25.586Z,80.316162
2019-03-25T22:09:37.630Z,80.419922
2019-03-25T22:09:49.685Z,80.517578
2019-03-25T22:10:01.744Z,80.517578
2019-03-25T22:10:13.806Z,80.517578
2019-03-25T22:10:25.878Z,80.419922
2019-03-25T22:10:37.932Z,80.419922
2019-03-25T22:10:51.975Z,80.517578
2019-03-25T22:11:05.020Z,80.517578
2019-03-25T22:11:17.067Z,80.419922
2019-03-25T22:11:29.127Z,80.419922
2019-03-25T22:11:41.162Z,80.212402
2019-03-25T22:11:53.235Z,80.108643
2019-03-25T22:12:05.287Z,80.108643
2019-03-25T22:12:17.415Z,80.212402
2019-03-25T22:12:29.456Z,80.419922
2019-03-25T22:12:41.533Z,80.419922
2019-03-25T22:12:53.574Z,80.316162
2019-03-25T22:13:05.636Z,80.004883
2019-03-25T22:13:17.680Z,79.797363
2019-03-25T22:13:29.721Z,79.797363
2019-03-25T22:13:41.749Z,79.901123
2019-03-25T22:13:53.834Z,80.004883
2019-03-25T22:14:06.889Z,80.004883
2019-03-25T22:14:18.940Z,80.108643
2019-03-25T22:14:31.069Z,80.316162
2019-03-25T22:14:44.120Z,80.621338
2019-03-25T22:14:56.177Z,80.725098
2019-03-25T22:15:08.229Z,80.621338
2019-03-25T22:15:20.399Z,80.621338
2019-03-25T22:15:32.444Z,80.621338
2019-03-25T22:15:44.528Z,80.621338
2019-03-25T22:15:56.561Z,80.621338
2019-03-25T22:16:08.611Z,80.725098
2019-03-25T22:16:20.728Z,80.828857
2019-03-25T22:16:32.764Z,80.725098
2019-03-25T22:16:44.833Z,80.828857
2019-03-25T22:16:56.853Z,80.932617
2019-03-25T22:17:08.895Z,80.932617
2019-03-25T22:17:20.935Z,80.828857
2019-03-25T22:17:34.011Z,80.725098
2019-03-25T22:17:46.059Z,80.725098
2019-03-25T22:17:58.144Z,80.828857
2019-03-25T22:18:10.185Z,80.828857
2019-03-25T22:18:22.252Z,80.828857
2019-03-25T22:18:36.278Z,80.725098
2019-03-25T22:18:48.332Z,80.621338
2019-03-25T22:19:00.370Z,80.621338
2019-03-25T22:19:12.425Z,80.932617
2019-03-25T22:19:24.488Z,81.140137
2019-03-25T22:19:36.540Z,81.036377
2019-03-25T22:19:48.598Z,80.932617
2019-03-25T22:20:00.656Z,80.932617
2019-03-25T22:20:12.711Z,80.932617
2019-03-25T22:20:24.782Z,80.932617
2019-03-25T22:20:36.827Z,80.932617
2019-03-25T22:20:48.864Z,81.036377
2019-03-25T22:21:01.517Z,80.932617
2019-03-25T22:21:13.569Z,80.725098
2019-03-25T22:21:25.627Z,80.725098
2019-03-25T22:21:37.691Z,80.621338
2019-03-25T22:21:49.740Z,80.621338
2019-03-25T22:22:01.853Z,80.517578
2019-03-25T22:22:13.838Z,80.517578
2019-03-25T22:22:25.875Z,80.517578
2019-03-25T22:22:37.926Z,80.621338
2019-03-25T22:22:49.980Z,80.621338
2019-03-25T22:23:02.067Z,80.828857
2019-03-25T22:23:14.115Z,80.828857
2019-03-25T22:23:26.156Z,80.828857
2019-03-25T22:23:38.194Z,80.828857
2019-03-25T22:23:50.258Z,80.725098
2019-03-25T22:24:03.303Z,80.828857
2019-03-25T22:24:15.352Z,80.828857
2019-03-25T22:24:27.411Z,80.828857
2019-03-25T22:24:39.474Z,80.725098
2019-03-25T22:24:51.533Z,80.828857
2019-03-25T22:25:03.583Z,81.036377
2019-03-25T22:25:15.627Z,81.243896
2019-03-25T22:25:28.686Z,81.347656
2019-03-25T22:25:40.830Z,81.243896
2019-03-25T22:25:52.886Z,81.140137
2019-03-25T22:26:04.982Z,81.243896
2019-03-25T22:26:17.021Z,81.243896
2019-03-25T22:26:29.089Z,81.140137
2019-03-25T22:26:41.131Z,81.140137
2019-03-25T22:26:53.183Z,81.036377
2019-03-25T22:27:05.398Z,80.828857
2019-03-25T22:27:17.504Z,80.725098
2019-03-25T22:27:29.566Z,80.517578
2019-03-25T22:27:42.614Z,80.517578
2019-03-25T22:27:54.667Z,80.725098
2019-03-25T22:28:06.761Z,80.828857
2019-03-25T22:28:18.807Z,80.932617
2019-03-25T22:28:31.873Z,80.828857
2019-03-25T22:28:43.922Z,81.036377
2019-03-25T22:28:55.979Z,81.140137
2019-03-25T22:29:08.019Z,81.140137
2019-03-25T22:29:20.086Z,81.140137
2019-03-25T22:29:32.158Z,81.243896
2019-03-25T22:29:44.214Z,81.243896
2019-03-25T22:29:56.272Z,81.243896
2019-03-25T22:30:08.356Z,81.347656
2019-03-25T22:30:20.424Z,81.451416
2019-03-25T22:30:34.447Z,81.451416
2019-03-25T22:30:46.547Z,81.140137
2019-03-25T22:30:58.689Z,80.932617
2019-03-25T22:31:10.754Z,81.036377
2019-03-25T22:31:22.850Z,81.036377
2019-03-25T22:31:34.941Z,81.140137
2019-03-25T22:31:47.016Z,81.243896
2019-03-25T22:31:59.059Z,81.036377
2019-03-25T22:32:11.113Z,80.932617
2019-03-25T22:32:23.164Z,80.932617
2019-03-25T22:32:35.247Z,81.140137
2019-03-25T22:32:48.337Z,81.140137
2019-03-25T22:33:00.388Z,81.347656
2019-03-25T22:33:24.688Z,81.451416
2019-03-25T22:33:31.455Z,81.243896
2019-03-25T22:33:43.535Z,81.036377
2019-03-25T22:33:55.622Z,80.828857
2019-03-25T22:34:07.707Z,80.828857
2019-03-25T22:34:20.798Z,80.621338
2019-03-25T22:34:32.866Z,80.517578
2019-03-25T22:34:44.919Z,80.725098
2019-03-25T22:34:56.978Z,80.932617
2019-03-25T22:35:09.038Z,81.036377
2019-03-25T22:35:22.124Z,81.036377
2019-03-25T22:35:34.170Z,81.036377
2019-03-25T22:35:46.260Z,80.932617
2019-03-25T22:35:59.314Z,80.517578
2019-03-25T22:36:11.398Z,80.316162
2019-03-25T22:36:23.497Z,80.419922
2019-03-25T22:36:35.583Z,80.517578
2019-03-25T22:36:48.671Z,80.517578
2019-03-25T22:37:01.728Z,80.725098
2019-03-25T22:37:13.780Z,80.621338
2019-03-25T22:37:25.887Z,80.517578
2019-03-25T22:37:37.967Z,80.621338
2019-03-25T22:37:50.853Z,80.621338
2019-03-25T22:38:02.889Z,80.621338
2019-03-25T22:38:14.940Z,80.621338
2019-03-25T22:38:27.007Z,80.621338
2019-03-25T22:38:39.065Z,80.621338
2019-03-25T22:38:51.151Z,80.761719
2019-03-25T22:39:04.176Z,80.725098
2019-03-25T22:39:16.236Z,80.828857
2019-03-25T22:39:28.334Z,80.828857
2019-03-25T22:39:40.397Z,81.176758
2019-03-25T22:39:53.444Z,81.243896
2019-03-25T22:40:05.528Z,81.176758
2019-03-25T22:40:17.578Z,80.969238
2019-03-25T22:40:29.673Z,80.865479
2019-03-25T22:40:41.757Z,80.657959
2019-03-25T22:40:53.818Z,80.761719
2019-03-25T22:41:06.876Z,80.761719
2019-03-25T22:41:20.213Z,80.761719
2019-03-25T22:41:35.005Z,80.761719
2019-03-25T22:41:45.733Z,80.865479
2019-03-25T22:41:57.783Z,80.969238
2019-03-25T22:42:09.831Z,81.176758
2019-03-25T22:42:21.905Z,81.176758
2019-03-25T22:42:34.012Z,81.384277
2019-03-25T22:42:46.100Z,81.384277
2019-03-25T22:42:58.166Z,81.488037
2019-03-25T22:43:10.248Z,81.591797
2019-03-25T22:43:22.307Z,81.695557
2019-03-25T22:43:34.359Z,81.695557
2019-03-25T22:43:46.419Z,81.591797
2019-03-25T22:43:58.525Z,81.488037
2019-03-25T22:44:10.594Z,81.384277
2019-03-25T22:44:22.660Z,81.280518
2019-03-25T22:44:34.743Z,81.384277
2019-03-25T22:44:47.819Z,81.140137
2019-03-25T22:44:59.891Z,81.072998
2019-03-25T22:45:11.949Z,81.072998
2019-03-25T22:45:24.008Z,80.969238
2019-03-25T22:45:36.069Z,80.865479
2019-03-25T22:45:49.127Z,80.969238
2019-03-25T22:46:01.180Z,81.176758
2019-03-25T22:46:13.252Z,81.347656
2019-03-25T22:46:25.309Z,81.591797
2019-03-25T22:46:37.378Z,81.695557
2019-03-25T22:46:49.408Z,81.658936
2019-03-25T22:47:01.453Z,81.591797
2019-03-25T22:47:13.538Z,81.591797
2019-03-25T22:47:26.590Z,81.488037
2019-03-25T22:47:38.669Z,81.591797
2019-03-25T22:47:50.758Z,81.695557
2019-03-25T22:48:02.829Z,81.591797
2019-03-25T22:48:16.854Z,81.695557
2019-03-25T22:48:28.938Z,81.695557
2019-03-25T22:48:41.077Z,81.488037
2019-03-25T22:48:53.133Z,81.488037
2019-03-25T22:49:05.269Z,81.488037
2019-03-25T22:49:17.338Z,81.555176
2019-03-25T22:49:30.436Z,81.591797
2019-03-25T22:49:42.481Z,81.591797
2019-03-25T22:49:54.541Z,81.488037
2019-03-25T22:50:06.570Z,81.488037
2019-03-25T22:50:18.637Z,81.488037
2019-03-25T22:50:30.767Z,81.591797
2019-03-25T22:50:42.832Z,81.591797
2019-03-25T22:50:54.866Z,81.695557
2019-03-25T22:51:06.929Z,81.799316
2019-03-25T22:51:18.970Z,81.799316
2019-03-25T22:51:31.031Z,81.799316
2019-03-25T22:51:43.091Z,81.799316
2019-03-25T22:51:55.155Z,81.799316
2019-03-25T22:52:07.256Z,81.903076
2019-03-25T22:52:19.328Z,82.000732
2019-03-25T22:52:31.390Z,82.000732
2019-03-25T22:52:43.478Z,81.903076
2019-03-25T22:52:55.542Z,81.799316
2019-03-25T22:53:07.592Z,81.799316
2019-03-25T22:53:19.631Z,81.799316
2019-03-25T22:53:31.688Z,82.000732
2019-03-25T22:53:43.747Z,82.104492
2019-03-25T22:53:55.808Z,81.860352
2019-03-25T22:54:07.884Z,81.799316
2019-03-25T22:54:19.943Z,81.799316
2019-03-25T22:54:32.016Z,81.695557
2019-03-25T22:54:44.134Z,81.695557
2019-03-25T22:54:56.185Z,81.658936
2019-03-25T22:55:08.281Z,81.591797
2019-03-25T22:55:23.256Z,81.488037
2019-03-25T22:55:34.537Z,81.384277
2019-03-25T22:55:47.585Z,81.799316
2019-03-25T22:55:59.702Z,82.000732
2019-03-25T22:56:11.759Z,82.067871
2019-03-25T22:56:23.802Z,82.104492
2019-03-25T22:56:35.870Z,82.000732
2019-03-25T22:56:47.941Z,81.903076
2019-03-25T22:57:00.005Z,81.860352
2019-03-25T22:57:12.068Z,81.903076
2019-03-25T22:57:24.168Z,81.799316
2019-03-25T22:57:36.210Z,81.903076
2019-03-25T22:57:48.266Z,82.104492
2019-03-25T22:58:00.334Z,82.208252